createdAt,value
2023-03-17T00:01:58.915Z,100.00
2023-03-17T00:04:28.864Z,100.00
2023-03-17T00:06:58.072Z,100.00
2023-03-17T00:09:26.553Z,100.00
2023-03-17T00:11:54.970Z,100.00
2023-03-17T00:14:23.524Z,100.00
2023-03-17T00:16:54.411Z,100.00
2023-03-17T00:19:33.080Z,100.00
2023-03-17T00:22:02.283Z,100.00
2023-03-17T00:24:32.345Z,100.00
2023-03-17T00:27:01.107Z,100.00
2023-03-17T00:29:29.572Z,100.00
2023-03-17T00:31:59.989Z,100.00
2023-03-17T00:34:28.566Z,100.00
2023-03-17T00:36:57.274Z,100.00
2023-03-17T00:39:25.667Z,100.00
2023-03-17T00:41:54.487Z,100.00
2023-03-17T00:44:22.849Z,100.00
2023-03-17T00:46:51.891Z,100.00
2023-03-17T00:49:24.376Z,100.00
2023-03-17T00:51:53.280Z,100.00
2023-03-17T00:54:22.684Z,100.00
2023-03-17T00:56:52.733Z,100.00
2023-03-17T00:59:28.008Z,100.00
2023-03-17T01:01:57.361Z,100.00
2023-03-17T01:04:27.398Z,100.00
2023-03-17T01:06:57.194Z,100.00
2023-03-17T01:09:28.445Z,100.00
2023-03-17T01:11:57.201Z,100.00
2023-03-17T01:14:26.031Z,100.00
2023-03-17T01:16:55.323Z,100.00
2023-03-17T01:19:24.138Z,100.00
2023-03-17T01:21:53.932Z,100.00
2023-03-17T01:24:22.394Z,100.00
2023-03-17T01:26:51.032Z,100.00
2023-03-17T01:29:19.412Z,100.00
2023-03-17T01:31:47.864Z,100.00
2023-03-17T01:34:16.806Z,100.00
2023-03-17T01:36:45.495Z,100.00
2023-03-17T01:39:15.762Z,100.00
2023-03-17T01:41:45.705Z,100.00
2023-03-17T01:44:18.608Z,100.00
2023-03-17T01:46:47.675Z,100.00
2023-03-17T01:49:27.421Z,100.00
2023-03-17T01:52:01.489Z,100.00
2023-03-17T01:54:40.055Z,100.00
2023-03-17T01:57:15.039Z,100.00
2023-03-17T01:59:47.896Z,99.82
2023-03-17T02:02:21.531Z,98.98
2023-03-17T02:04:51.025Z,99.01
2023-03-17T02:07:20.639Z,99.37
2023-03-17T02:09:51.337Z,99.28
2023-03-17T02:12:19.728Z,98.93
2023-03-17T02:14:48.126Z,98.87
2023-03-17T02:17:16.626Z,99.43
2023-03-17T02:19:45.069Z,99.61
2023-03-17T02:22:15.418Z,99.17
2023-03-17T02:24:47.775Z,99.59
2023-03-17T02:27:19.177Z,99.66
2023-03-17T02:29:48.212Z,99.97
2023-03-17T02:32:18.921Z,99.92
2023-03-17T02:34:48.413Z,99.90
2023-03-17T02:37:19.645Z,100.00
2023-03-17T02:39:48.305Z,99.31
2023-03-17T02:42:17.099Z,100.00
2023-03-17T02:44:45.536Z,100.00
2023-03-17T02:47:14.576Z,100.00
2023-03-17T02:49:43.969Z,99.79
2023-03-17T02:52:12.515Z,99.09
2023-03-17T02:54:42.848Z,98.94
2023-03-17T02:57:11.282Z,99.09
2023-03-17T02:59:39.790Z,99.00
2023-03-17T03:02:08.197Z,98.48
2023-03-17T03:04:36.856Z,97.99
2023-03-17T03:07:05.655Z,98.38
2023-03-17T03:09:34.029Z,98.10
2023-03-17T03:12:03.968Z,98.45
2023-03-17T03:14:32.546Z,97.60
2023-03-17T03:17:00.812Z,97.83
2023-03-17T03:19:29.557Z,97.47
2023-03-17T03:21:58.043Z,97.22
2023-03-17T03:24:26.545Z,97.29
2023-03-17T03:26:55.114Z,96.80
2023-03-17T03:29:24.808Z,97.03
2023-03-17T03:31:53.334Z,96.79
2023-03-17T03:34:22.460Z,96.06
2023-03-17T03:36:50.830Z,95.81
2023-03-17T03:39:19.407Z,95.91
2023-03-17T03:41:47.662Z,95.65
2023-03-17T03:44:15.931Z,95.49
2023-03-17T03:46:45.928Z,95.78
2023-03-17T03:49:14.242Z,95.67
2023-03-17T03:51:42.998Z,96.15
2023-03-17T03:54:11.447Z,96.02
2023-03-17T03:56:39.703Z,95.53
2023-03-17T03:59:08.746Z,95.47
2023-03-17T04:01:37.476Z,95.37
2023-03-17T04:04:07.899Z,95.11
2023-03-17T04:06:36.425Z,95.29
2023-03-17T04:09:04.840Z,95.66
2023-03-17T04:11:33.244Z,95.66
2023-03-17T04:14:01.961Z,96.02
2023-03-17T04:16:30.843Z,96.49
2023-03-17T04:18:59.403Z,96.68
2023-03-17T04:21:29.134Z,96.64
2023-03-17T04:23:57.726Z,96.38
2023-03-17T04:26:26.520Z,96.80
2023-03-17T04:28:55.020Z,96.44
2023-03-17T04:31:23.375Z,95.95
2023-03-17T04:33:53.220Z,95.23
2023-03-17T04:36:23.431Z,95.22
2023-03-17T04:38:53.645Z,95.38
2023-03-17T04:41:22.516Z,95.40
2023-03-17T04:43:50.938Z,95.28
2023-03-17T04:46:19.576Z,95.02
2023-03-17T04:48:48.002Z,94.66
2023-03-17T04:51:17.179Z,94.76
2023-03-17T04:53:46.142Z,94.31
2023-03-17T04:56:16.313Z,93.88
2023-03-17T04:58:44.587Z,93.89
2023-03-17T05:01:13.103Z,93.75
2023-03-17T05:03:41.386Z,93.18
2023-03-17T05:06:09.759Z,92.96
2023-03-17T05:08:38.086Z,93.64
2023-03-17T05:11:07.132Z,92.92
2023-03-17T05:13:36.859Z,91.81
2023-03-17T05:16:05.277Z,91.79
2023-03-17T05:18:34.173Z,90.70
2023-03-17T05:21:02.541Z,89.18
2023-03-17T05:23:30.821Z,87.99
2023-03-17T05:25:59.458Z,87.95
2023-03-17T05:28:28.196Z,87.39
2023-03-17T05:30:58.470Z,85.43
2023-03-17T05:33:26.833Z,84.49
2023-03-17T05:35:55.295Z,84.17
2023-03-17T05:38:23.905Z,83.06
2023-03-17T05:40:52.819Z,83.45
2023-03-17T05:43:22.749Z,82.81
2023-03-17T05:45:51.761Z,80.94
2023-03-17T05:48:21.744Z,78.01
2023-03-17T05:50:50.176Z,78.40
2023-03-17T05:53:18.786Z,79.13
2023-03-17T05:55:47.058Z,78.47
2023-03-17T05:58:17.148Z,78.42
2023-03-17T06:00:45.940Z,79.85
2023-03-17T06:03:14.408Z,80.90
2023-03-17T06:05:45.341Z,80.52
2023-03-17T06:08:14.292Z,80.21
2023-03-17T06:10:43.690Z,81.34
2023-03-17T06:13:12.934Z,81.67
2023-03-17T06:15:42.320Z,80.97
2023-03-17T06:18:10.906Z,80.06
2023-03-17T06:20:39.277Z,80.84
2023-03-17T06:23:09.090Z,80.64
2023-03-17T06:25:38.356Z,80.41
2023-03-17T06:28:07.452Z,80.85
2023-03-17T06:30:40.398Z,81.23
2023-03-17T06:33:09.573Z,81.17
2023-03-17T06:35:38.376Z,79.79
2023-03-17T06:38:06.673Z,79.35
2023-03-17T06:40:37.159Z,80.59
2023-03-17T06:43:05.616Z,80.28
2023-03-17T06:45:34.135Z,80.17
2023-03-17T06:48:02.906Z,79.85
2023-03-17T06:50:31.227Z,77.74
2023-03-17T06:52:59.530Z,79.09
2023-03-17T06:55:29.071Z,77.68
2023-03-17T06:57:59.351Z,77.79
2023-03-17T07:00:28.844Z,76.35
2023-03-17T07:02:57.913Z,74.90
2023-03-17T07:05:26.723Z,74.61
2023-03-17T07:07:55.284Z,74.16
2023-03-17T07:10:23.561Z,75.53
2023-03-17T07:12:51.905Z,76.21
2023-03-17T07:15:22.137Z,74.73
2023-03-17T07:17:50.594Z,74.52
2023-03-17T07:20:20.049Z,73.64
2023-03-17T07:22:48.392Z,74.86
2023-03-17T07:25:16.910Z,73.76
2023-03-17T07:27:45.267Z,72.86
2023-03-17T07:30:19.100Z,71.11
2023-03-17T07:32:49.412Z,71.89
2023-03-17T07:35:18.050Z,73.03
2023-03-17T07:37:46.384Z,71.56
2023-03-17T07:40:15.134Z,70.60
2023-03-17T07:42:43.618Z,70.17
2023-03-17T07:45:12.970Z,70.05
2023-03-17T07:47:41.686Z,71.04
2023-03-17T07:50:12.586Z,70.46
2023-03-17T07:52:41.866Z,70.37
2023-03-17T07:55:12.692Z,69.96
2023-03-17T07:57:41.872Z,70.74
2023-03-17T08:00:13.869Z,69.64
2023-03-17T08:02:42.383Z,69.47
2023-03-17T08:05:13.383Z,69.92
2023-03-17T08:07:41.822Z,68.83
2023-03-17T08:10:11.942Z,69.10
2023-03-17T08:12:42.909Z,69.53
2023-03-17T08:15:12.182Z,69.90
2023-03-17T08:17:41.114Z,67.66
2023-03-17T08:20:12.501Z,67.00
2023-03-17T08:22:41.528Z,66.69
2023-03-17T08:25:17.393Z,65.97
2023-03-17T08:27:45.707Z,67.31
2023-03-17T08:30:16.640Z,67.66
2023-03-17T08:32:45.483Z,67.92
2023-03-17T08:35:16.131Z,66.27
2023-03-17T08:37:44.612Z,65.59
2023-03-17T08:40:17.257Z,65.60
2023-03-17T08:42:46.232Z,66.46
2023-03-17T08:45:16.861Z,66.41
2023-03-17T08:47:46.281Z,66.18
2023-03-17T08:50:20.385Z,66.81
2023-03-17T08:52:48.800Z,67.09
2023-03-17T08:55:17.819Z,65.33
2023-03-17T08:57:46.517Z,65.10
2023-03-17T09:00:19.366Z,64.48
2023-03-17T09:02:48.437Z,64.33
2023-03-17T09:05:19.724Z,64.36
2023-03-17T09:07:49.187Z,62.71
2023-03-17T09:10:22.671Z,62.55
2023-03-17T09:12:51.734Z,62.40
2023-03-17T09:15:20.850Z,61.87
2023-03-17T09:17:49.525Z,62.51
2023-03-17T09:20:21.454Z,62.25
2023-03-17T09:22:51.606Z,62.36
2023-03-17T09:25:21.039Z,62.76
2023-03-17T09:27:49.763Z,59.65
2023-03-17T09:30:18.955Z,59.97
2023-03-17T09:32:47.750Z,60.62
2023-03-17T09:35:16.710Z,60.84
2023-03-17T09:37:46.562Z,60.52
2023-03-17T09:40:19.060Z,60.75
2023-03-17T09:42:58.199Z,61.41
2023-03-17T09:45:34.563Z,59.44
2023-03-17T09:48:26.349Z,59.30
2023-03-17T09:50:59.087Z,58.84
2023-03-17T09:53:34.921Z,59.16
2023-03-17T09:56:09.960Z,60.68
2023-03-17T09:58:40.653Z,60.70
2023-03-17T10:01:13.021Z,58.07
2023-03-17T10:03:42.994Z,58.06
2023-03-17T10:06:26.297Z,58.15
2023-03-17T10:09:01.931Z,58.08
2023-03-17T10:11:40.658Z,57.72
2023-03-17T10:14:29.308Z,58.18
2023-03-17T10:17:11.128Z,58.15
2023-03-17T10:19:44.467Z,57.68
2023-03-17T10:22:21.801Z,58.19
2023-03-17T10:24:54.126Z,57.91
2023-03-17T10:27:22.971Z,57.94
2023-03-17T10:29:51.711Z,58.61
2023-03-17T10:32:20.236Z,58.00
2023-03-17T10:34:50.337Z,57.70
2023-03-17T10:37:21.298Z,58.62
2023-03-17T10:39:53.864Z,59.27
2023-03-17T10:42:25.139Z,59.06
2023-03-17T10:44:56.426Z,59.19
2023-03-17T10:47:38.158Z,60.09
2023-03-17T10:50:21.708Z,58.68
2023-03-17T10:52:55.312Z,58.66
2023-03-17T10:55:30.311Z,58.84
2023-03-17T10:58:05.167Z,57.95
2023-03-17T11:00:36.625Z,58.16
2023-03-17T11:03:13.479Z,58.25
2023-03-17T11:05:42.182Z,58.02
2023-03-17T11:08:18.591Z,58.52
2023-03-17T11:10:56.772Z,58.03
2023-03-17T11:13:31.526Z,58.00
2023-03-17T11:16:10.837Z,58.14
2023-03-17T11:18:40.923Z,57.70
2023-03-17T11:21:11.623Z,56.91
2023-03-17T11:23:59.479Z,57.34
2023-03-17T11:26:57.626Z,58.02
2023-03-17T11:29:38.950Z,58.38
2023-03-17T11:32:22.993Z,57.33
2023-03-17T11:35:02.732Z,56.48
2023-03-17T11:38:01.026Z,55.99
2023-03-17T11:40:34.100Z,55.36
2023-03-17T11:43:19.379Z,56.62
2023-03-17T11:45:54.131Z,55.40
2023-03-17T11:48:35.502Z,55.59
2023-03-17T11:51:13.909Z,55.86
2023-03-17T11:54:09.915Z,55.36
2023-03-17T11:56:46.784Z,56.08
2023-03-17T11:59:25.988Z,55.33
2023-03-17T12:02:00.005Z,54.83
2023-03-17T12:04:34.556Z,54.65
2023-03-17T12:07:12.787Z,54.88
2023-03-17T12:09:45.873Z,53.23
2023-03-17T12:12:19.233Z,52.44
2023-03-17T12:14:52.508Z,52.88
2023-03-17T12:17:28.592Z,52.88
2023-03-17T12:20:09.914Z,53.19
2023-03-17T12:22:44.950Z,52.51
2023-03-17T12:25:22.236Z,52.42
2023-03-17T12:28:01.154Z,52.81
2023-03-17T12:30:37.528Z,51.65
2023-03-17T12:33:17.265Z,51.39
2023-03-17T12:35:45.542Z,51.49
2023-03-17T12:38:19.494Z,51.91
2023-03-17T12:41:23.836Z,52.33
2023-03-17T12:44:03.019Z,52.74
2023-03-17T12:46:56.998Z,51.44
2023-03-17T12:49:53.446Z,50.26
2023-03-17T12:52:34.748Z,50.45
2023-03-17T12:55:06.475Z,50.52
2023-03-17T12:57:41.454Z,50.61
2023-03-17T13:00:21.247Z,51.21
2023-03-17T13:03:09.359Z,50.84
2023-03-17T13:05:39.141Z,50.95
2023-03-17T13:08:11.097Z,50.96
2023-03-17T13:10:43.596Z,50.12
2023-03-17T13:13:25.604Z,50.51
2023-03-17T13:15:59.799Z,50.75
2023-03-17T13:18:51.419Z,50.37
2023-03-17T13:21:33.509Z,50.59
2023-03-17T13:24:51.358Z,50.51
2023-03-17T13:27:50.048Z,51.89
2023-03-17T13:30:45.226Z,50.32
2023-03-17T13:33:23.872Z,50.67
2023-03-17T13:36:18.797Z,51.23
2023-03-17T13:39:19.360Z,51.16
2023-03-17T13:42:18.772Z,51.20
2023-03-17T13:45:08.164Z,51.12
2023-03-17T13:47:40.062Z,49.82
2023-03-17T13:50:15.167Z,49.21
2023-03-17T13:52:50.639Z,48.78
2023-03-17T13:55:38.507Z,49.37
2023-03-17T13:58:24.530Z,48.65
2023-03-17T14:01:01.308Z,48.25
2023-03-17T14:03:37.862Z,48.63
2023-03-17T14:06:09.157Z,48.61
2023-03-17T14:08:42.060Z,48.53
2023-03-17T14:11:22.616Z,48.73
2023-03-17T14:14:00.732Z,49.50
2023-03-17T14:16:33.128Z,50.10
2023-03-17T14:19:13.357Z,49.63
2023-03-17T14:21:41.609Z,48.88
2023-03-17T14:24:21.268Z,49.77
2023-03-17T14:26:50.674Z,49.39
2023-03-17T14:29:22.432Z,48.97
2023-03-17T14:31:55.196Z,49.03
2023-03-17T14:34:26.043Z,48.31
2023-03-17T14:36:54.293Z,48.18
2023-03-17T14:39:27.190Z,49.05
2023-03-17T14:42:00.618Z,49.26
2023-03-17T14:44:29.526Z,49.36
2023-03-17T14:47:05.841Z,49.09
2023-03-17T14:49:34.644Z,49.58
2023-03-17T14:52:03.093Z,49.34
2023-03-17T14:54:36.394Z,49.22
2023-03-17T14:57:09.123Z,48.74
2023-03-17T14:59:39.390Z,49.23
2023-03-17T15:02:23.302Z,50.38
2023-03-17T15:04:54.287Z,51.65
2023-03-17T15:07:37.898Z,51.61
2023-03-17T15:10:15.814Z,51.94
2023-03-17T15:12:46.304Z,52.17
2023-03-17T15:15:32.248Z,52.06
2023-03-17T15:18:04.923Z,51.63
2023-03-17T15:20:35.773Z,51.34
2023-03-17T15:23:06.970Z,50.91
2023-03-17T15:25:40.302Z,50.74
2023-03-17T15:28:12.890Z,50.94
2023-03-17T15:30:47.757Z,50.77
2023-03-17T15:33:22.622Z,50.61
2023-03-17T15:35:51.772Z,50.89
2023-03-17T15:38:20.151Z,51.37
2023-03-17T15:40:50.308Z,51.20
2023-03-17T15:43:19.463Z,50.99
2023-03-17T15:45:47.843Z,51.19
2023-03-17T15:48:22.706Z,51.22
2023-03-17T15:50:52.045Z,51.70
2023-03-17T15:53:20.855Z,51.50
2023-03-17T15:55:50.642Z,51.55
2023-03-17T15:58:19.067Z,51.17
2023-03-17T16:00:51.503Z,51.53
2023-03-17T16:03:25.927Z,51.54
2023-03-17T16:05:54.491Z,51.05
2023-03-17T16:08:23.261Z,51.60
2023-03-17T16:10:53.316Z,51.17
2023-03-17T16:13:22.486Z,51.84
2023-03-17T16:15:55.085Z,51.37
2023-03-17T16:18:32.258Z,50.93
2023-03-17T16:21:01.090Z,51.33
2023-03-17T16:23:32.512Z,50.60
2023-03-17T16:26:14.163Z,50.74
2023-03-17T16:28:44.668Z,51.34
2023-03-17T16:31:19.602Z,50.76
2023-03-17T16:33:48.359Z,51.61
2023-03-17T16:36:19.225Z,50.62
2023-03-17T16:38:50.060Z,51.16
2023-03-17T16:41:22.453Z,51.28
2023-03-17T16:43:53.741Z,51.09
2023-03-17T16:46:23.079Z,51.31
2023-03-17T16:48:52.141Z,51.73
2023-03-17T16:51:20.747Z,51.43
2023-03-17T16:53:49.361Z,51.93
2023-03-17T16:56:21.556Z,51.68
2023-03-17T16:58:50.778Z,52.01
2023-03-17T17:01:22.620Z,52.33
2023-03-17T17:03:51.129Z,52.34
2023-03-17T17:06:21.244Z,52.54
2023-03-17T17:08:51.322Z,52.73
2023-03-17T17:11:21.817Z,53.23
2023-03-17T17:13:51.823Z,53.71
2023-03-17T17:16:24.590Z,53.50
2023-03-17T17:18:52.927Z,53.62
2023-03-17T17:21:21.396Z,53.69
2023-03-17T17:23:52.687Z,53.92
2023-03-17T17:26:23.072Z,53.98
2023-03-17T17:28:51.586Z,54.17
2023-03-17T17:31:20.334Z,54.17
2023-03-17T17:33:49.042Z,53.88
2023-03-17T17:36:18.612Z,54.37
2023-03-17T17:38:47.011Z,54.01
2023-03-17T17:41:17.128Z,54.12
2023-03-17T17:43:47.397Z,54.92
2023-03-17T17:46:18.723Z,54.74
2023-03-17T17:48:47.813Z,54.35
2023-03-17T17:51:16.356Z,54.59
2023-03-17T17:53:44.904Z,55.06
2023-03-17T17:56:15.784Z,54.88
2023-03-17T17:58:44.488Z,55.29
2023-03-17T18:01:19.795Z,54.81
2023-03-17T18:03:48.178Z,55.30
2023-03-17T18:06:18.118Z,55.57
2023-03-17T18:08:46.861Z,55.65
2023-03-17T18:11:15.259Z,55.18
2023-03-17T18:13:43.699Z,55.20
2023-03-17T18:16:16.822Z,55.08
2023-03-17T18:18:46.102Z,55.37
2023-03-17T18:21:15.162Z,55.44
2023-03-17T18:23:47.256Z,55.07
2023-03-17T18:26:16.528Z,54.81
2023-03-17T18:28:45.913Z,55.14
2023-03-17T18:31:20.142Z,54.76
2023-03-17T18:33:50.141Z,54.77
2023-03-17T18:36:18.761Z,54.71
2023-03-17T18:38:47.167Z,54.55
2023-03-17T18:41:16.501Z,54.84
2023-03-17T18:43:45.096Z,54.90
2023-03-17T18:46:16.396Z,55.00
2023-03-17T18:48:44.955Z,54.56
2023-03-17T18:51:13.326Z,54.89
2023-03-17T18:53:41.932Z,54.54
2023-03-17T18:56:10.965Z,54.31
2023-03-17T18:58:39.406Z,54.23
2023-03-17T19:01:08.015Z,54.07
2023-03-17T19:03:38.095Z,54.31
2023-03-17T19:06:11.639Z,54.03
2023-03-17T19:08:40.280Z,53.28
2023-03-17T19:11:09.393Z,53.06
2023-03-17T19:13:38.341Z,53.51
2023-03-17T19:16:08.342Z,53.77
2023-03-17T19:18:41.949Z,53.39
2023-03-17T19:21:11.722Z,53.07
2023-03-17T19:23:41.411Z,53.86
2023-03-17T19:26:10.508Z,54.14
2023-03-17T19:28:38.823Z,54.65
2023-03-17T19:31:07.531Z,53.81
2023-03-17T19:33:37.291Z,54.29
2023-03-17T19:36:09.289Z,53.88
2023-03-17T19:38:38.097Z,52.71
2023-03-17T19:41:06.780Z,53.32
2023-03-17T19:43:40.897Z,53.16
2023-03-17T19:46:11.090Z,52.91
2023-03-17T19:48:42.079Z,53.15
2023-03-17T19:51:10.382Z,53.44
2023-03-17T19:53:38.842Z,52.92
2023-03-17T19:56:08.254Z,53.27
2023-03-17T19:58:36.843Z,53.56
2023-03-17T20:01:05.658Z,53.75
2023-03-17T20:03:35.312Z,53.78
2023-03-17T20:06:06.683Z,54.51
2023-03-17T20:08:35.710Z,55.18
2023-03-17T20:11:05.625Z,55.82
2023-03-17T20:13:34.637Z,56.44
2023-03-17T20:16:03.750Z,56.03
2023-03-17T20:18:32.586Z,55.82
2023-03-17T20:21:01.680Z,56.23
2023-03-17T20:23:31.526Z,54.20
2023-03-17T20:25:59.885Z,52.74
2023-03-17T20:28:29.954Z,52.58
2023-03-17T20:31:00.913Z,52.20
2023-03-17T20:33:29.398Z,52.06
2023-03-17T20:35:57.763Z,51.33
2023-03-17T20:38:26.396Z,49.28
2023-03-17T20:41:07.456Z,48.75
2023-03-17T20:43:37.565Z,47.88
2023-03-17T20:46:09.447Z,47.20
2023-03-17T20:48:38.347Z,46.74
2023-03-17T20:51:09.543Z,46.63
2023-03-17T20:53:37.812Z,46.39
2023-03-17T20:56:08.613Z,46.80
2023-03-17T20:58:37.211Z,46.73
2023-03-17T21:01:05.735Z,46.75
2023-03-17T21:03:34.016Z,46.53
2023-03-17T21:06:02.340Z,46.09
2023-03-17T21:08:30.767Z,45.96
2023-03-17T21:10:59.157Z,46.35
2023-03-17T21:13:29.062Z,45.64
2023-03-17T21:15:57.588Z,45.79
2023-03-17T21:18:25.940Z,46.19
2023-03-17T21:20:54.949Z,45.67
2023-03-17T21:23:23.787Z,45.40
2023-03-17T21:25:56.647Z,44.97
2023-03-17T21:28:25.183Z,45.03
2023-03-17T21:30:55.967Z,45.28
2023-03-17T21:33:24.342Z,44.80
2023-03-17T21:35:52.689Z,45.23
2023-03-17T21:38:21.465Z,45.73
2023-03-17T21:40:50.216Z,45.44
2023-03-17T21:43:18.715Z,45.73
2023-03-17T21:45:47.066Z,46.06
2023-03-17T21:48:17.310Z,45.93
2023-03-17T21:50:45.842Z,46.14
2023-03-17T21:53:15.951Z,46.36
2023-03-17T21:55:44.302Z,46.85
2023-03-17T21:58:12.651Z,46.89
2023-03-17T22:00:45.671Z,46.90
2023-03-17T22:03:15.153Z,47.09
2023-03-17T22:05:47.228Z,47.04
2023-03-17T22:08:15.661Z,47.21
2023-03-17T22:10:43.946Z,47.48
2023-03-17T22:13:13.781Z,47.97
2023-03-17T22:15:42.329Z,48.30
2023-03-17T22:18:10.706Z,47.88
2023-03-17T22:20:39.237Z,47.96
2023-03-17T22:23:09.225Z,47.44
2023-03-17T22:25:37.529Z,47.84
2023-03-17T22:28:06.561Z,47.78
2023-03-17T22:30:34.887Z,48.49
2023-03-17T22:33:03.268Z,47.60
2023-03-17T22:35:32.305Z,47.70
2023-03-17T22:38:01.668Z,47.25
2023-03-17T22:40:31.904Z,47.52
2023-03-17T22:43:01.674Z,47.58
2023-03-17T22:45:30.165Z,47.72
2023-03-17T22:47:58.781Z,47.99
2023-03-17T22:50:27.017Z,47.35
2023-03-17T22:52:55.466Z,47.37
2023-03-17T22:55:23.861Z,47.63
2023-03-17T22:57:53.687Z,47.69
2023-03-17T23:00:23.043Z,47.64
2023-03-17T23:02:51.828Z,47.64
2023-03-17T23:05:20.514Z,48.05
2023-03-17T23:07:51.551Z,48.09
2023-03-17T23:10:24.679Z,47.44
2023-03-17T23:12:54.762Z,47.92
2023-03-17T23:15:23.626Z,47.91
2023-03-17T23:17:52.035Z,48.31
2023-03-17T23:20:20.572Z,48.44
2023-03-17T23:22:48.898Z,48.25
2023-03-17T23:25:17.537Z,48.47
2023-03-17T23:27:46.852Z,48.25
2023-03-17T23:30:18.102Z,48.81
2023-03-17T23:32:46.915Z,49.28
2023-03-17T23:35:15.529Z,49.61
2023-03-17T23:37:43.813Z,50.07
2023-03-17T23:40:14.194Z,50.00
2023-03-17T23:42:43.207Z,50.17
2023-03-17T23:45:12.584Z,50.68
2023-03-17T23:47:42.887Z,51.03
2023-03-17T23:50:12.826Z,51.21
2023-03-17T23:52:41.593Z,51.25
2023-03-17T23:55:11.873Z,51.63
2023-03-17T23:57:40.480Z,51.94
